createdAt,value
2023-05-22T00:01:56.709Z,19.30
2023-05-22T00:04:23.922Z,16.77
2023-05-22T00:06:50.822Z,12.53
2023-05-22T00:09:17.905Z,12.97
2023-05-22T00:11:44.918Z,13.50
2023-05-22T00:14:13.454Z,21.23
2023-05-22T00:16:40.429Z,14.60
2023-05-22T00:19:13.460Z,12.13
2023-05-22T00:21:40.505Z,14.50
2023-05-22T00:24:07.980Z,16.33
2023-05-22T00:26:34.971Z,14.63
2023-05-22T00:29:02.008Z,17.57
2023-05-22T00:31:29.057Z,18.37
2023-05-22T00:33:55.902Z,14.40
2023-05-22T00:36:23.627Z,14.50
2023-05-22T00:38:50.890Z,15.50
2023-05-22T00:41:17.741Z,16.03
2023-05-22T00:43:46.256Z,17.43
2023-05-22T00:46:13.105Z,15.00
2023-05-22T00:48:39.929Z,16.73
2023-05-22T00:51:08.057Z,13.50
2023-05-22T00:53:34.943Z,15.93
2023-05-22T00:56:02.147Z,12.57
2023-05-22T00:58:29.557Z,12.33
2023-05-22T01:00:56.863Z,15.20
2023-05-22T01:03:26.985Z,12.33
2023-05-22T01:05:54.939Z,13.17
2023-05-22T01:08:22.219Z,13.57
2023-05-22T01:10:54.373Z,12.30
2023-05-22T01:13:40.088Z,13.83
2023-05-22T01:16:18.929Z,17.47
2023-05-22T01:19:02.891Z,23.60
2023-05-22T01:21:46.294Z,19.33
2023-05-22T01:25:04.058Z,18.03
2023-05-22T01:27:55.878Z,12.30
2023-05-22T01:30:55.557Z,17.67
2023-05-22T01:33:26.939Z,13.00
2023-05-22T01:35:57.342Z,16.90
2023-05-22T01:38:25.398Z,15.43
2023-05-22T01:40:53.845Z,13.77
2023-05-22T01:43:20.909Z,14.27
2023-05-22T01:45:47.927Z,16.43
2023-05-22T01:48:14.719Z,18.87
2023-05-22T01:50:42.216Z,12.83
2023-05-22T01:53:22.768Z,18.40
2023-05-22T01:55:57.858Z,12.13
2023-05-22T01:58:49.124Z,19.83
2023-05-22T02:01:19.370Z,15.70
2023-05-22T02:03:47.919Z,14.00
2023-05-22T02:06:17.225Z,20.03
2023-05-22T02:08:44.584Z,14.90
2023-05-22T02:11:13.867Z,22.33
2023-05-22T02:13:41.718Z,16.00
2023-05-22T02:16:09.399Z,16.30
2023-05-22T02:18:36.297Z,14.17
2023-05-22T02:21:03.379Z,16.57
2023-05-22T02:23:32.568Z,13.00
2023-05-22T02:25:59.589Z,15.97
2023-05-22T02:28:27.196Z,16.63
2023-05-22T02:30:54.125Z,16.20
2023-05-22T02:33:21.455Z,18.30
2023-05-22T02:35:50.001Z,17.50
2023-05-22T02:38:16.873Z,15.03
2023-05-22T02:40:45.106Z,14.40
2023-05-22T02:43:11.980Z,16.63
2023-05-22T02:45:38.839Z,13.03
2023-05-22T02:48:06.520Z,16.23
2023-05-22T02:50:33.519Z,16.87
2023-05-22T02:53:00.339Z,19.63
2023-05-22T02:55:27.143Z,14.50
2023-05-22T02:57:53.944Z,16.10
2023-05-22T03:00:22.323Z,12.00
2023-05-22T03:02:49.553Z,18.93
2023-05-22T03:05:17.833Z,13.17
2023-05-22T03:07:48.096Z,13.00
2023-05-22T03:10:15.373Z,13.77
2023-05-22T03:12:42.266Z,17.80
2023-05-22T03:15:10.433Z,16.93
2023-05-22T03:17:38.811Z,20.50
2023-05-22T03:20:06.892Z,20.83
2023-05-22T03:22:33.801Z,16.40
2023-05-22T03:25:00.572Z,21.23
2023-05-22T03:27:27.439Z,20.00
2023-05-22T03:29:55.043Z,13.63
2023-05-22T03:32:23.486Z,32.17
2023-05-22T03:34:50.484Z,31.27
2023-05-22T03:37:17.342Z,33.57
2023-05-22T03:39:44.777Z,33.03
2023-05-22T03:42:20.488Z,60.17
2023-05-22T03:44:49.283Z,57.37
2023-05-22T03:47:16.996Z,73.67
2023-05-22T03:49:43.836Z,81.00
2023-05-22T03:52:10.923Z,80.00
2023-05-22T03:54:37.809Z,76.67
2023-05-22T03:57:05.742Z,41.97
2023-05-22T03:59:32.842Z,43.10
2023-05-22T04:02:01.245Z,54.97
2023-05-22T04:04:28.539Z,43.57
2023-05-22T04:06:58.064Z,48.47
2023-05-22T04:09:31.580Z,41.00
2023-05-22T04:11:58.795Z,26.33
2023-05-22T04:14:26.181Z,20.90
2023-05-22T04:16:53.296Z,24.27
2023-05-22T04:19:21.003Z,28.67
2023-05-22T04:21:48.518Z,35.87
2023-05-22T04:24:18.323Z,29.50
2023-05-22T04:26:45.636Z,25.53
2023-05-22T04:29:14.456Z,25.10
2023-05-22T04:31:42.139Z,22.97
2023-05-22T04:34:13.040Z,15.60
2023-05-22T04:36:39.922Z,20.53
2023-05-22T04:39:08.106Z,22.07
2023-05-22T04:41:35.286Z,17.40
2023-05-22T04:44:04.110Z,20.73
2023-05-22T04:46:31.702Z,17.27
2023-05-22T04:49:02.090Z,14.20
2023-05-22T04:51:31.223Z,15.73
2023-05-22T04:53:58.592Z,19.67
2023-05-22T04:56:35.626Z,15.60
2023-05-22T04:59:05.617Z,16.57
2023-05-22T05:01:35.080Z,18.60
2023-05-22T05:04:03.781Z,20.47
2023-05-22T05:06:30.829Z,15.63
2023-05-22T05:08:58.081Z,22.97
2023-05-22T05:11:25.088Z,16.53
2023-05-22T05:13:51.927Z,30.97
2023-05-22T05:16:19.122Z,23.90
2023-05-22T05:18:46.078Z,21.80
2023-05-22T05:21:13.117Z,22.83
2023-05-22T05:23:40.143Z,17.50
2023-05-22T05:26:07.311Z,15.57
2023-05-22T05:28:34.173Z,19.80
2023-05-22T05:31:01.749Z,18.23
2023-05-22T05:33:47.366Z,21.10
2023-05-22T05:36:21.659Z,21.40
2023-05-22T05:38:48.732Z,22.00
2023-05-22T05:41:15.652Z,18.03
2023-05-22T05:43:43.338Z,24.23
2023-05-22T05:46:10.496Z,22.00
2023-05-22T05:48:37.501Z,21.17
2023-05-22T05:51:05.242Z,23.40
2023-05-22T05:53:37.638Z,25.57
2023-05-22T05:56:06.597Z,30.13
2023-05-22T05:58:33.688Z,20.60
2023-05-22T06:01:19.137Z,21.03
2023-05-22T06:03:46.672Z,21.87
2023-05-22T06:06:17.627Z,22.53
2023-05-22T06:09:05.540Z,21.00
2023-05-22T06:11:36.415Z,17.77
2023-05-22T06:14:04.452Z,18.80
2023-05-22T06:16:31.894Z,18.80
2023-05-22T06:18:59.764Z,26.03
2023-05-22T06:21:27.488Z,18.73
2023-05-22T06:23:54.348Z,18.33
2023-05-22T06:26:22.313Z,27.50
2023-05-22T06:28:51.680Z,15.83
2023-05-22T06:31:20.027Z,16.53
2023-05-22T06:33:48.979Z,25.10
2023-05-22T06:36:16.195Z,26.47
2023-05-22T06:38:43.607Z,22.93
2023-05-22T06:41:26.581Z,14.67
2023-05-22T06:43:53.384Z,18.80
2023-05-22T06:46:26.610Z,27.60
2023-05-22T06:48:57.644Z,24.20
2023-05-22T06:51:26.750Z,32.70
2023-05-22T06:54:04.291Z,40.13
2023-05-22T06:56:32.160Z,21.93
2023-05-22T06:59:10.833Z,16.63
2023-05-22T07:01:57.999Z,26.43
2023-05-22T07:04:52.408Z,19.40
2023-05-22T07:07:24.386Z,9.87
2023-05-22T07:09:51.456Z,16.07
2023-05-22T07:12:18.486Z,13.80
2023-05-22T07:14:45.382Z,14.77
2023-05-22T07:17:12.597Z,14.43
2023-05-22T07:19:43.339Z,13.97
2023-05-22T07:22:10.210Z,19.53
2023-05-22T07:24:39.556Z,13.17
2023-05-22T07:27:07.043Z,17.20
2023-05-22T07:29:34.133Z,15.30
2023-05-22T07:32:02.019Z,13.57
2023-05-22T07:34:34.309Z,11.70
2023-05-22T07:37:11.952Z,11.77
2023-05-22T07:39:39.345Z,15.83
2023-05-22T07:42:07.127Z,11.67
2023-05-22T07:44:39.313Z,13.53
2023-05-22T07:47:06.405Z,14.20
2023-05-22T07:49:34.351Z,11.63
2023-05-22T07:52:01.903Z,10.37
2023-05-22T07:54:28.944Z,14.80
2023-05-22T07:56:56.256Z,12.10
2023-05-22T07:59:25.489Z,17.77
2023-05-22T08:01:58.002Z,10.87
2023-05-22T08:04:26.060Z,10.83
2023-05-22T08:06:53.219Z,11.30
2023-05-22T08:09:21.537Z,11.03
2023-05-22T08:11:48.533Z,13.90
2023-05-22T08:14:15.806Z,12.47
2023-05-22T08:16:42.956Z,12.87
2023-05-22T08:19:09.959Z,8.70
2023-05-22T08:21:37.577Z,13.60
2023-05-22T08:24:05.227Z,11.57
2023-05-22T08:26:33.826Z,13.20
2023-05-22T08:29:01.001Z,12.53
2023-05-22T08:31:30.974Z,14.50
2023-05-22T08:34:02.413Z,11.43
2023-05-22T08:36:34.007Z,13.80
2023-05-22T08:39:01.555Z,13.53
2023-05-22T08:41:29.295Z,17.33
2023-05-22T08:43:56.127Z,11.13
2023-05-22T08:46:26.322Z,8.23
2023-05-22T08:48:57.175Z,9.37
2023-05-22T08:51:28.387Z,10.90
2023-05-22T08:54:00.867Z,16.17
2023-05-22T08:56:29.495Z,10.43
2023-05-22T08:58:58.344Z,13.67
2023-05-22T09:01:25.359Z,16.00
2023-05-22T09:03:52.294Z,11.20
2023-05-22T09:06:19.132Z,12.70
2023-05-22T09:08:46.143Z,17.23
2023-05-22T09:11:13.345Z,12.53
2023-05-22T09:13:41.428Z,17.63
2023-05-22T09:16:15.155Z,11.53
2023-05-22T09:18:42.651Z,12.43
2023-05-22T09:21:22.137Z,15.93
2023-05-22T09:24:00.463Z,13.80
2023-05-22T09:26:30.689Z,16.33
2023-05-22T09:28:59.392Z,11.17
2023-05-22T09:31:27.549Z,16.47
2023-05-22T09:33:55.878Z,8.80
2023-05-22T09:36:29.732Z,17.13
2023-05-22T09:38:58.132Z,12.53
2023-05-22T09:41:25.075Z,9.30
2023-05-22T09:43:51.865Z,9.23
2023-05-22T09:46:18.857Z,14.03
2023-05-22T09:48:51.778Z,13.80
2023-05-22T09:51:23.860Z,10.03
2023-05-22T09:53:51.449Z,9.40
2023-05-22T09:56:27.473Z,11.80
2023-05-22T09:59:03.330Z,9.50
2023-05-22T10:01:31.057Z,23.30
2023-05-22T10:03:58.538Z,10.60
2023-05-22T10:06:27.334Z,8.63
2023-05-22T10:09:00.690Z,11.67
2023-05-22T10:11:30.000Z,13.67
2023-05-22T10:13:58.811Z,10.00
2023-05-22T10:16:26.377Z,15.63
2023-05-22T10:18:55.328Z,11.13
2023-05-22T10:21:22.831Z,10.50
2023-05-22T10:23:51.713Z,10.70
2023-05-22T10:26:20.812Z,9.93
2023-05-22T10:28:56.193Z,13.13
2023-05-22T10:31:45.942Z,8.97
2023-05-22T10:34:36.217Z,11.27
2023-05-22T10:37:21.248Z,15.50
2023-05-22T10:40:13.508Z,23.63
2023-05-22T10:42:40.479Z,13.37
2023-05-22T10:45:08.124Z,14.10
2023-05-22T10:47:35.639Z,8.57
2023-05-22T10:50:09.624Z,11.03
2023-05-22T10:52:37.337Z,11.90
2023-05-22T10:55:11.190Z,8.23
2023-05-22T10:57:39.649Z,8.80
2023-05-22T11:00:11.467Z,9.80
2023-05-22T11:02:46.083Z,10.13
2023-05-22T11:05:18.931Z,12.23
2023-05-22T11:07:45.811Z,8.17
2023-05-22T11:10:12.610Z,15.40
2023-05-22T11:12:39.509Z,23.23
2023-05-22T11:15:08.832Z,12.47
2023-05-22T11:17:51.190Z,11.00
2023-05-22T11:20:22.453Z,10.43
2023-05-22T11:22:52.233Z,13.93
2023-05-22T11:25:21.603Z,13.50
2023-05-22T11:27:49.156Z,8.50
2023-05-22T11:30:17.174Z,9.87
2023-05-22T11:32:45.725Z,12.23
2023-05-22T11:35:17.228Z,9.00
2023-05-22T11:37:45.134Z,7.93
2023-05-22T11:40:15.234Z,6.83
2023-05-22T11:42:42.236Z,13.20
2023-05-22T11:45:10.014Z,8.80
2023-05-22T11:47:37.645Z,10.20
2023-05-22T11:50:06.776Z,7.90
2023-05-22T11:52:35.577Z,11.70
2023-05-22T11:55:11.081Z,10.60
2023-05-22T11:57:38.402Z,9.60
2023-05-22T12:00:06.675Z,8.43
2023-05-22T12:02:39.066Z,7.57
2023-05-22T12:05:06.804Z,14.57
2023-05-22T12:07:33.668Z,11.50
2023-05-22T12:10:01.200Z,17.93
2023-05-22T12:12:28.126Z,14.93
2023-05-22T12:14:54.985Z,6.30
2023-05-22T12:17:23.059Z,10.47
2023-05-22T12:19:49.896Z,7.23
2023-05-22T12:22:16.776Z,6.97
2023-05-22T12:24:48.393Z,12.50
2023-05-22T12:27:15.599Z,12.10
2023-05-22T12:29:43.103Z,11.50
2023-05-22T12:32:11.796Z,7.87
2023-05-22T12:34:46.449Z,9.60
2023-05-22T12:37:21.144Z,17.80
2023-05-22T12:40:03.301Z,9.50
2023-05-22T12:42:30.614Z,7.23
2023-05-22T12:44:58.194Z,9.20
2023-05-22T12:47:25.498Z,10.97
2023-05-22T12:49:52.721Z,7.50
2023-05-22T12:52:19.682Z,8.20
2023-05-22T12:54:46.703Z,8.87
2023-05-22T12:57:13.570Z,8.27
2023-05-22T12:59:41.341Z,20.00
2023-05-22T13:02:09.425Z,14.33
2023-05-22T13:04:36.566Z,6.40
2023-05-22T13:07:03.399Z,6.30
2023-05-22T13:09:30.554Z,11.73
2023-05-22T13:11:57.420Z,10.90
2023-05-22T13:14:24.251Z,7.57
2023-05-22T13:16:51.300Z,7.80
2023-05-22T13:19:18.129Z,8.57
2023-05-22T13:21:44.938Z,6.40
2023-05-22T13:24:11.715Z,9.93
2023-05-22T13:26:38.585Z,7.47
2023-05-22T13:29:05.404Z,10.30
2023-05-22T13:31:37.846Z,5.73
2023-05-22T13:34:05.171Z,6.07
2023-05-22T13:36:32.726Z,7.30
2023-05-22T13:38:59.563Z,9.10
2023-05-22T13:41:26.644Z,7.27
2023-05-22T13:43:53.570Z,6.13
2023-05-22T13:46:21.834Z,7.80
2023-05-22T13:48:48.736Z,5.50
2023-05-22T13:51:15.983Z,6.70
2023-05-22T13:53:42.871Z,9.30
2023-05-22T13:56:09.647Z,7.70
2023-05-22T13:58:36.487Z,6.27
2023-05-22T14:01:03.822Z,10.90
2023-05-22T14:03:30.677Z,9.60
2023-05-22T14:05:57.480Z,6.67
2023-05-22T14:08:24.922Z,6.50
2023-05-22T14:10:52.160Z,8.30
2023-05-22T14:13:18.997Z,6.00
2023-05-22T14:15:46.998Z,7.07
2023-05-22T14:18:16.265Z,11.73
2023-05-22T14:20:43.922Z,6.30
2023-05-22T14:23:11.755Z,16.17
2023-05-22T14:25:42.729Z,15.97
2023-05-22T14:28:10.912Z,6.83
2023-05-22T14:30:40.425Z,8.73
2023-05-22T14:33:07.420Z,7.33
2023-05-22T14:35:34.317Z,13.93
2023-05-22T14:38:01.823Z,10.77
2023-05-22T14:40:28.757Z,8.10
2023-05-22T14:42:55.866Z,7.47
2023-05-22T14:45:22.911Z,6.43
2023-05-22T14:47:49.929Z,8.77
2023-05-22T14:50:20.235Z,12.90
2023-05-22T14:52:48.782Z,7.40
2023-05-22T14:55:16.505Z,8.43
2023-05-22T14:57:43.430Z,7.53
2023-05-22T15:00:10.981Z,6.57
2023-05-22T15:02:37.937Z,9.97
2023-05-22T15:05:07.076Z,8.97
2023-05-22T15:10:05.012Z,8.60
2023-05-22T15:12:32.461Z,8.60
2023-05-22T15:14:59.361Z,11.27
2023-05-22T15:17:26.340Z,12.10
2023-05-22T15:19:53.214Z,7.00
2023-05-22T15:22:20.361Z,8.03
2023-05-22T15:24:48.207Z,9.43
2023-05-22T15:27:15.155Z,16.53
2023-05-22T15:29:41.973Z,13.03
2023-05-22T15:32:09.177Z,9.23
2023-05-22T15:34:36.467Z,8.77
2023-05-22T15:37:03.559Z,8.23
2023-05-22T15:39:30.522Z,12.30
2023-05-22T15:42:05.783Z,7.70
2023-05-22T15:44:33.638Z,7.03
2023-05-22T15:47:00.580Z,10.40
2023-05-22T15:49:30.159Z,14.53
2023-05-22T15:51:58.558Z,9.87
2023-05-22T15:54:25.415Z,9.40
2023-05-22T15:56:52.180Z,7.53
2023-05-22T15:59:18.961Z,7.30
2023-05-22T16:01:45.875Z,7.20
2023-05-22T16:04:12.855Z,5.53
2023-05-22T16:06:39.702Z,5.53
2023-05-22T16:09:06.711Z,10.33
2023-05-22T16:11:33.591Z,7.90
2023-05-22T16:14:00.373Z,10.43
2023-05-22T16:16:27.208Z,8.40
2023-05-22T16:18:54.470Z,10.47
2023-05-22T16:21:21.529Z,8.33
2023-05-22T16:23:48.286Z,7.00
2023-05-22T16:26:15.109Z,23.90
2023-05-22T16:28:42.040Z,6.90
2023-05-22T16:31:09.149Z,7.97
2023-05-22T16:33:37.521Z,7.10
2023-05-22T16:36:05.801Z,15.43
2023-05-22T16:38:32.643Z,15.83
2023-05-22T16:40:59.822Z,8.00
2023-05-22T16:43:26.674Z,10.30
2023-05-22T16:45:53.718Z,13.13
2023-05-22T16:48:20.850Z,9.97
2023-05-22T16:50:47.788Z,7.70
2023-05-22T16:53:17.157Z,8.10
2023-05-22T16:55:44.308Z,9.70
2023-05-22T16:58:12.780Z,7.60
2023-05-22T17:00:40.301Z,10.43
2023-05-22T17:03:08.277Z,11.50
2023-05-22T17:05:37.863Z,8.20
2023-05-22T17:08:05.562Z,8.90
2023-05-22T17:10:32.353Z,10.03
2023-05-22T17:12:59.107Z,9.40
2023-05-22T17:15:25.895Z,9.30
2023-05-22T17:17:52.756Z,15.93
2023-05-22T17:20:22.995Z,7.70
2023-05-22T17:22:50.168Z,12.73
2023-05-22T17:25:17.005Z,11.30
2023-05-22T17:27:44.085Z,8.53
2023-05-22T17:30:11.362Z,16.97
2023-05-22T17:32:38.537Z,15.87
2023-05-22T17:35:06.852Z,15.87
2023-05-22T17:37:33.966Z,11.20
2023-05-22T17:40:00.879Z,10.60
2023-05-22T17:42:27.723Z,11.43
2023-05-22T17:44:54.522Z,12.40
2023-05-22T17:47:21.363Z,12.33
2023-05-22T17:49:48.262Z,13.80
2023-05-22T17:52:15.263Z,11.73
2023-05-22T17:54:42.056Z,9.77
2023-05-22T17:57:08.859Z,11.30
2023-05-22T17:59:36.642Z,14.23
2023-05-22T18:02:04.919Z,14.90
2023-05-22T18:04:31.711Z,11.50
2023-05-22T18:06:58.444Z,13.57
2023-05-22T18:09:25.310Z,9.03
2023-05-22T18:11:52.842Z,12.93
2023-05-22T18:14:19.969Z,9.53
2023-05-22T18:16:46.766Z,11.13
2023-05-22T18:19:13.602Z,10.77
2023-05-22T18:21:40.559Z,12.80
2023-05-22T18:24:07.421Z,10.13
2023-05-22T18:26:34.481Z,16.07
2023-05-22T18:29:01.281Z,13.23
2023-05-22T18:31:28.158Z,10.50
2023-05-22T18:33:55.002Z,8.80
2023-05-22T18:36:22.052Z,8.23
2023-05-22T18:38:48.840Z,7.83
2023-05-22T18:41:15.825Z,21.13
2023-05-22T18:43:43.241Z,9.90
2023-05-22T18:46:10.070Z,15.33
2023-05-22T18:48:36.820Z,10.23
2023-05-22T18:51:03.755Z,12.27
2023-05-22T18:53:31.503Z,11.20
2023-05-22T18:55:58.403Z,8.37
2023-05-22T18:58:25.586Z,10.57
2023-05-22T19:00:55.265Z,12.13
2023-05-22T19:03:22.256Z,9.57
2023-05-22T19:05:49.065Z,11.00
2023-05-22T19:08:15.900Z,11.60
2023-05-22T19:10:42.958Z,9.93
2023-05-22T19:13:09.951Z,9.23
2023-05-22T19:15:38.324Z,9.80
2023-05-22T19:18:05.441Z,8.03
2023-05-22T19:20:32.325Z,11.97
2023-05-22T19:22:59.275Z,17.67
2023-05-22T19:25:26.191Z,12.47
2023-05-22T19:27:53.091Z,17.00
2023-05-22T19:30:21.812Z,13.93
2023-05-22T19:32:55.544Z,17.13
2023-05-22T19:35:22.619Z,9.13
2023-05-22T19:37:50.040Z,8.53
2023-05-22T19:40:16.952Z,11.27
2023-05-22T19:42:43.840Z,8.50
2023-05-22T19:45:10.931Z,10.77
2023-05-22T19:47:37.738Z,9.03
2023-05-22T19:50:05.184Z,15.93
2023-05-22T19:52:31.996Z,9.73
2023-05-22T19:54:59.069Z,11.00
2023-05-22T19:57:27.078Z,12.07
2023-05-22T19:59:54.509Z,13.03
2023-05-22T20:02:21.326Z,9.30
2023-05-22T20:04:48.817Z,17.83
2023-05-22T20:07:15.741Z,11.13
2023-05-22T20:09:43.017Z,11.87
2023-05-22T20:12:10.490Z,12.23
2023-05-22T20:14:37.754Z,13.07
2023-05-22T20:17:04.857Z,14.13
2023-05-22T20:19:34.606Z,13.23
2023-05-22T20:22:02.049Z,9.80
2023-05-22T20:24:29.578Z,12.07
2023-05-22T20:26:56.918Z,10.43
2023-05-22T20:29:23.826Z,9.53
2023-05-22T20:31:54.538Z,9.87
2023-05-22T20:34:22.071Z,10.80
2023-05-22T20:36:49.057Z,12.10
2023-05-22T20:39:18.082Z,10.50
2023-05-22T20:41:46.485Z,11.23
2023-05-22T20:44:13.455Z,11.10
2023-05-22T20:46:40.590Z,9.60
2023-05-22T20:49:07.415Z,14.93
2023-05-22T20:51:34.369Z,8.87
2023-05-22T20:54:01.482Z,10.13
2023-05-22T20:56:28.955Z,8.73
2023-05-22T20:58:56.226Z,10.10
2023-05-22T21:01:23.955Z,9.70
2023-05-22T21:03:51.743Z,11.20
2023-05-22T21:06:19.190Z,10.80
2023-05-22T21:08:45.968Z,15.43
2023-05-22T21:11:13.589Z,9.80
2023-05-22T21:13:40.464Z,10.60
2023-05-22T21:16:07.381Z,11.30
2023-05-22T21:18:34.184Z,12.60
2023-05-22T21:21:01.145Z,11.07
2023-05-22T21:23:27.903Z,11.20
2023-05-22T21:25:55.264Z,12.80
2023-05-22T21:28:22.129Z,11.10
2023-05-22T21:30:48.976Z,12.83
2023-05-22T21:33:15.856Z,13.77
2023-05-22T21:35:42.625Z,10.27
2023-05-22T21:38:09.502Z,11.67
2023-05-22T21:40:36.352Z,9.53
2023-05-22T21:43:03.123Z,10.30
2023-05-22T21:45:31.079Z,15.93
2023-05-22T21:47:57.879Z,9.77
2023-05-22T21:50:24.790Z,12.73
2023-05-22T21:52:51.658Z,10.93
2023-05-22T21:55:18.564Z,9.67
2023-05-22T21:57:45.870Z,12.00
2023-05-22T22:00:13.544Z,11.17
2023-05-22T22:02:40.768Z,10.00
2023-05-22T22:05:07.900Z,10.00
2023-05-22T22:07:34.884Z,10.13
2023-05-22T22:10:01.665Z,13.13
2023-05-22T22:12:28.431Z,10.43
2023-05-22T22:14:56.750Z,9.43
2023-05-22T22:17:24.068Z,9.23
2023-05-22T22:19:53.387Z,8.60
2023-05-22T22:22:22.566Z,10.90
2023-05-22T22:24:49.446Z,11.87
2023-05-22T22:27:16.503Z,10.97
2023-05-22T22:29:43.613Z,8.97
2023-05-22T22:32:10.544Z,8.60
2023-05-22T22:34:37.573Z,7.20
2023-05-22T22:37:05.737Z,11.17
2023-05-22T22:39:32.537Z,9.97
2023-05-22T22:42:04.095Z,7.77
2023-05-22T22:44:32.309Z,9.57
2023-05-22T22:46:59.170Z,11.23
2023-05-22T22:49:26.059Z,9.63
2023-05-22T22:51:53.490Z,11.20
2023-05-22T22:54:20.843Z,12.23
2023-05-22T22:56:49.681Z,12.90
2023-05-22T22:59:17.170Z,19.10
2023-05-22T23:01:44.121Z,11.77
2023-05-22T23:04:11.120Z,15.37
2023-05-22T23:06:38.193Z,14.60
2023-05-22T23:09:04.953Z,14.90
2023-05-22T23:11:37.473Z,14.67
2023-05-22T23:14:07.206Z,14.40
2023-05-22T23:16:40.755Z,16.70
2023-05-22T23:19:08.550Z,13.50
2023-05-22T23:21:36.240Z,13.93
2023-05-22T23:24:04.687Z,16.73
2023-05-22T23:26:32.308Z,12.63
2023-05-22T23:29:01.885Z,16.50
2023-05-22T23:31:30.633Z,12.33
2023-05-22T23:33:58.103Z,11.20
2023-05-22T23:36:25.567Z,15.83
2023-05-22T23:38:52.365Z,18.57
2023-05-22T23:41:19.479Z,11.67
2023-05-22T23:43:46.556Z,12.77
2023-05-22T23:46:14.238Z,17.43
2023-05-22T23:48:42.106Z,15.43
2023-05-22T23:51:10.113Z,12.60
2023-05-22T23:53:37.777Z,12.50
2023-05-22T23:56:04.965Z,11.93
2023-05-22T23:58:32.296Z,13.90
